createdAt,value
2018-09-24T00:00:40.689Z,99.90
2018-09-24T00:03:08.199Z,99.90
2018-09-24T00:05:35.741Z,99.90
2018-09-24T00:08:03.153Z,99.90
2018-09-24T00:10:30.562Z,99.90
2018-09-24T00:12:57.957Z,99.90
2018-09-24T00:15:25.349Z,99.90
2018-09-24T00:17:52.774Z,99.90
2018-09-24T00:20:20.157Z,99.90
2018-09-24T00:22:47.553Z,99.90
2018-09-24T00:25:14.949Z,99.90
2018-09-24T00:27:42.348Z,99.90
2018-09-24T00:30:09.779Z,99.90
2018-09-24T00:32:37.185Z,99.90
2018-09-24T00:35:04.618Z,99.90
2018-09-24T00:37:32.013Z,99.90
2018-09-24T00:39:59.419Z,99.90
2018-09-24T00:42:26.813Z,99.90
2018-09-24T00:44:54.212Z,99.90
2018-09-24T00:47:21.602Z,99.90
2018-09-24T00:49:49.013Z,99.90
2018-09-24T00:52:16.412Z,99.90
2018-09-24T00:54:43.817Z,99.90
2018-09-24T00:57:11.213Z,99.90
2018-09-24T00:59:38.621Z,99.90
2018-09-24T01:02:06.034Z,99.90
2018-09-24T01:04:33.417Z,99.90
2018-09-24T01:07:00.814Z,99.90
2018-09-24T01:09:28.201Z,99.90
2018-09-24T01:11:55.612Z,99.90
2018-09-24T01:14:23.029Z,99.90
2018-09-24T01:16:50.432Z,99.90
2018-09-24T01:19:17.821Z,99.90
2018-09-24T01:21:45.215Z,99.90
2018-09-24T01:24:12.621Z,99.90
2018-09-24T01:26:40.049Z,99.90
2018-09-24T01:29:07.721Z,99.90
2018-09-24T01:31:35.128Z,99.90
2018-09-24T01:34:02.523Z,99.90
2018-09-24T01:36:29.913Z,99.90
2018-09-24T01:38:57.314Z,99.90
2018-09-24T01:41:24.719Z,99.90
2018-09-24T01:43:52.106Z,99.90
2018-09-24T01:46:19.553Z,99.90
2018-09-24T01:48:46.917Z,99.90
2018-09-24T01:51:14.325Z,99.90
2018-09-24T01:53:41.718Z,99.90
2018-09-24T01:56:09.115Z,99.90
2018-09-24T01:58:36.715Z,99.90
2018-09-24T02:01:04.301Z,99.90
2018-09-24T02:03:32.316Z,99.90
2018-09-24T02:05:59.701Z,99.90
2018-09-24T02:08:27.122Z,99.90
2018-09-24T02:10:54.526Z,99.90
2018-09-24T02:13:21.942Z,99.90
2018-09-24T02:15:49.344Z,99.90
2018-09-24T02:18:16.742Z,99.90
2018-09-24T02:20:44.161Z,99.90
2018-09-24T02:23:11.551Z,99.90
2018-09-24T02:25:38.969Z,99.90
2018-09-24T02:28:06.559Z,99.90
2018-09-24T02:30:33.961Z,99.90
2018-09-24T02:33:02.077Z,99.90
2018-09-24T02:35:29.477Z,99.90
2018-09-24T02:37:56.869Z,99.90
2018-09-24T02:40:24.853Z,99.90
2018-09-24T02:42:52.264Z,99.90
2018-09-24T02:45:19.857Z,99.90
2018-09-24T02:47:47.249Z,99.90
2018-09-24T02:50:14.665Z,99.90
2018-09-24T02:52:42.062Z,99.90
2018-09-24T02:55:09.923Z,99.90
2018-09-24T02:57:37.325Z,99.90
2018-09-24T03:00:04.713Z,99.90
2018-09-24T03:02:32.105Z,99.90
2018-09-24T03:04:59.498Z,99.90
2018-09-24T03:07:26.886Z,99.90
2018-09-24T03:09:54.273Z,99.90
2018-09-24T03:12:21.665Z,99.90
2018-09-24T03:14:49.033Z,99.90
2018-09-24T03:17:16.885Z,99.90
2018-09-24T03:19:44.274Z,99.90
2018-09-24T03:22:16.181Z,99.90
2018-09-24T03:24:43.566Z,99.90
2018-09-24T03:27:10.954Z,99.90
2018-09-24T03:29:38.345Z,99.90
2018-09-24T03:32:05.877Z,99.90
2018-09-24T03:34:33.277Z,99.90
2018-09-24T03:37:00.658Z,99.90
2018-09-24T03:39:28.082Z,99.90
2018-09-24T03:41:55.496Z,99.90
2018-09-24T03:44:22.882Z,99.90
2018-09-24T03:46:50.302Z,99.90
2018-09-24T03:49:17.706Z,99.90
2018-09-24T03:51:45.093Z,99.90
2018-09-24T03:54:12.495Z,99.90
2018-09-24T03:56:39.886Z,99.90
2018-09-24T03:59:07.659Z,99.90
2018-09-24T04:01:35.015Z,99.90
2018-09-24T04:04:07.860Z,99.90
2018-09-24T04:06:40.735Z,99.90
2018-09-24T04:09:13.746Z,99.90
2018-09-24T04:11:46.852Z,99.90
2018-09-24T04:14:19.821Z,99.90
2018-09-24T04:16:52.741Z,99.90
2018-09-24T04:19:25.709Z,99.90
2018-09-24T04:21:58.618Z,99.90
2018-09-24T04:24:31.461Z,99.90
2018-09-24T04:27:04.453Z,99.90
2018-09-24T04:29:37.413Z,99.90
2018-09-24T04:32:10.326Z,99.90
2018-09-24T04:34:43.181Z,99.90
2018-09-24T04:37:16.141Z,99.90
2018-09-24T04:39:49.054Z,99.90
2018-09-24T04:42:21.957Z,99.90
2018-09-24T04:44:54.951Z,99.90
2018-09-24T04:47:27.941Z,99.90
2018-09-24T04:50:01.006Z,99.90
2018-09-24T04:52:33.958Z,99.90
2018-09-24T04:55:06.845Z,99.90
2018-09-24T04:57:39.586Z,99.90
2018-09-24T05:00:12.441Z,99.90
2018-09-24T05:02:45.458Z,99.90
2018-09-24T05:05:18.318Z,99.90
2018-09-24T05:07:51.213Z,99.90
2018-09-24T05:10:24.253Z,99.90
2018-09-24T05:12:57.542Z,99.90
2018-09-24T05:15:30.480Z,99.90
2018-09-24T05:18:03.506Z,99.90
2018-09-24T05:20:36.415Z,99.90
2018-09-24T05:23:09.406Z,99.90
2018-09-24T05:25:42.433Z,99.90
2018-09-24T05:28:15.369Z,99.90
2018-09-24T05:30:48.309Z,99.90
2018-09-24T05:33:21.177Z,99.90
2018-09-24T05:35:54.221Z,99.90
2018-09-24T05:38:27.180Z,99.90
2018-09-24T05:41:00.169Z,99.90
2018-09-24T05:43:33.069Z,99.90
2018-09-24T05:46:05.936Z,99.90
2018-09-24T05:48:38.889Z,99.90
2018-09-24T05:51:11.865Z,99.90
2018-09-24T05:53:44.673Z,99.90
2018-09-24T05:56:17.585Z,99.90
2018-09-24T05:58:50.598Z,99.90
2018-09-24T06:01:23.673Z,99.90
2018-09-24T06:03:56.775Z,99.90
2018-09-24T06:06:29.830Z,99.90
2018-09-24T06:09:02.757Z,99.90
2018-09-24T06:11:35.825Z,99.90
2018-09-24T06:14:08.819Z,99.90
2018-09-24T06:16:41.877Z,99.90
2018-09-24T06:19:14.777Z,99.90
2018-09-24T06:21:47.706Z,99.90
2018-09-24T06:24:20.720Z,99.90
2018-09-24T06:26:53.717Z,99.90
2018-09-24T06:29:26.677Z,99.90
2018-09-24T06:31:59.568Z,99.90
2018-09-24T06:34:32.462Z,99.90
2018-09-24T06:37:05.457Z,99.90
2018-09-24T06:39:38.161Z,99.90
2018-09-24T06:42:11.126Z,99.90
2018-09-24T06:44:44.065Z,99.90
2018-09-24T06:47:17.054Z,99.90
2018-09-24T06:49:50.101Z,99.90
2018-09-24T06:52:23.061Z,99.90
2018-09-24T06:54:56.057Z,99.90
2018-09-24T06:57:28.815Z,99.90
2018-09-24T07:00:01.806Z,99.90
2018-09-24T07:02:34.825Z,99.90
2018-09-24T07:05:07.720Z,99.90
2018-09-24T07:07:40.649Z,99.90
2018-09-24T07:10:13.669Z,99.90
2018-09-24T07:12:46.569Z,99.90
2018-09-24T07:15:19.669Z,99.90
2018-09-24T07:17:52.658Z,99.90
2018-09-24T07:20:25.646Z,99.90
2018-09-24T07:22:58.594Z,99.90
2018-09-24T07:25:31.478Z,99.90
2018-09-24T07:28:04.491Z,99.90
2018-09-24T07:30:37.453Z,99.90
2018-09-24T07:33:10.558Z,99.90
2018-09-24T07:35:43.449Z,99.90
2018-09-24T07:38:16.325Z,99.90
2018-09-24T07:40:49.268Z,99.90
2018-09-24T07:43:22.238Z,99.90
2018-09-24T07:45:55.222Z,99.90
2018-09-24T07:48:27.993Z,99.90
2018-09-24T07:51:00.993Z,99.90
2018-09-24T07:53:33.946Z,99.90
2018-09-24T07:56:06.910Z,99.90
2018-09-24T07:58:39.800Z,99.90
2018-09-24T08:01:12.721Z,99.90
2018-09-24T08:03:45.501Z,99.90
2018-09-24T08:06:18.490Z,99.90
2018-09-24T08:08:51.301Z,99.90
2018-09-24T08:11:24.264Z,99.90
2018-09-24T08:13:57.125Z,99.90
2018-09-24T08:16:30.193Z,99.90
2018-09-24T08:19:03.132Z,99.90
2018-09-24T08:21:36.037Z,99.90
2018-09-24T08:24:08.885Z,99.90
2018-09-24T08:26:41.918Z,99.90
2018-09-24T08:29:14.801Z,99.90
2018-09-24T08:31:47.740Z,99.90
2018-09-24T08:34:20.806Z,99.90
2018-09-24T08:36:53.738Z,99.90
2018-09-24T08:39:26.582Z,99.90
2018-09-24T08:41:59.425Z,99.90
2018-09-24T08:44:32.337Z,99.90
2018-09-24T08:47:05.326Z,99.90
2018-09-24T08:49:38.272Z,99.90
2018-09-24T08:52:11.287Z,99.90
2018-09-24T08:54:44.307Z,99.90
2018-09-24T08:57:17.213Z,99.90
2018-09-24T08:59:50.069Z,99.90
2018-09-24T09:02:23.038Z,99.90
2018-09-24T09:04:56.001Z,99.90
2018-09-24T09:07:28.919Z,99.90
2018-09-24T09:10:01.878Z,99.90
2018-09-24T09:12:34.801Z,99.90
2018-09-24T09:15:07.781Z,99.90
2018-09-24T09:17:40.793Z,99.90
2018-09-24T09:20:13.846Z,99.90
2018-09-24T09:22:46.721Z,99.90
2018-09-24T09:25:19.627Z,99.90
2018-09-24T09:27:52.681Z,99.90
2018-09-24T09:30:25.718Z,99.90
2018-09-24T09:32:58.719Z,99.90
2018-09-24T09:35:31.749Z,99.90
2018-09-24T09:38:04.714Z,99.90
2018-09-24T09:40:37.549Z,99.90
2018-09-24T09:43:10.376Z,99.90
2018-09-24T09:45:43.339Z,99.90
2018-09-24T09:48:16.253Z,99.90
2018-09-24T09:50:49.042Z,99.90
2018-09-24T09:53:21.937Z,99.90
2018-09-24T09:55:54.821Z,99.90
2018-09-24T09:58:27.678Z,99.90
2018-09-24T10:01:00.669Z,99.90
2018-09-24T10:03:33.728Z,99.90
2018-09-24T10:06:06.577Z,99.90
2018-09-24T10:08:39.445Z,99.90
2018-09-24T10:11:12.524Z,99.90
2018-09-24T10:13:45.369Z,99.90
2018-09-24T10:16:18.233Z,99.90
2018-09-24T10:18:51.230Z,99.90
2018-09-24T10:21:24.193Z,99.90
2018-09-24T10:23:57.181Z,99.90
2018-09-24T10:26:30.217Z,99.90
2018-09-24T10:29:03.013Z,99.90
2018-09-24T10:31:35.886Z,99.90
2018-09-24T10:34:08.618Z,99.90
2018-09-24T10:36:41.533Z,99.90
2018-09-24T10:39:14.295Z,99.90
2018-09-24T10:41:47.645Z,99.90
2018-09-24T10:44:20.557Z,99.90
2018-09-24T10:46:53.513Z,99.90
2018-09-24T10:49:26.510Z,99.90
2018-09-24T10:51:59.437Z,99.90
2018-09-24T10:54:32.429Z,99.90
2018-09-24T10:57:05.442Z,99.90
2018-09-24T10:59:38.464Z,99.90
2018-09-24T11:02:11.462Z,99.90
2018-09-24T11:04:44.551Z,99.90
2018-09-24T11:07:17.434Z,99.90
2018-09-24T11:09:50.433Z,99.90
2018-09-24T11:12:23.462Z,99.90
2018-09-24T11:14:56.429Z,99.90
2018-09-24T11:17:29.545Z,99.90
2018-09-24T11:20:02.315Z,99.90
2018-09-24T11:22:35.151Z,99.90
2018-09-24T11:25:08.013Z,99.90
2018-09-24T11:27:41.025Z,99.90
2018-09-24T11:30:13.922Z,99.90
2018-09-24T11:32:46.937Z,98.90
2018-09-24T11:35:19.953Z,99.90
2018-09-24T11:37:53.041Z,99.90
2018-09-24T11:40:26.003Z,99.90
2018-09-24T11:42:58.765Z,99.90
2018-09-24T11:45:31.728Z,99.60
2018-09-24T11:48:04.693Z,97.30
2018-09-24T11:50:37.609Z,96.90
2018-09-24T11:53:10.473Z,97.00
2018-09-24T11:55:43.366Z,98.00
2018-09-24T11:58:16.434Z,98.30
2018-09-24T12:00:49.347Z,97.30
2018-09-24T12:03:22.229Z,97.60
2018-09-24T12:05:55.329Z,95.30
2018-09-24T12:08:28.326Z,92.80
2018-09-24T12:11:01.082Z,92.40
2018-09-24T12:13:34.017Z,90.90
2018-09-24T12:16:07.025Z,92.50
2018-09-24T12:18:39.877Z,92.20
2018-09-24T12:21:12.661Z,93.50
2018-09-24T12:23:45.625Z,93.00
2018-09-24T12:26:18.653Z,92.90
2018-09-24T12:28:51.704Z,93.50
2018-09-24T12:31:24.717Z,91.30
2018-09-24T12:33:57.789Z,92.00
2018-09-24T12:36:30.749Z,92.60
2018-09-24T12:39:03.797Z,91.90
2018-09-24T12:41:36.814Z,92.90
2018-09-24T12:44:09.630Z,92.80
2018-09-24T12:46:42.532Z,92.40
2018-09-24T12:49:15.440Z,90.90
2018-09-24T12:51:48.334Z,89.60
2018-09-24T12:54:21.330Z,87.50
2018-09-24T12:56:54.181Z,88.00
2018-09-24T12:59:27.185Z,86.10
2018-09-24T13:02:00.153Z,85.40
2018-09-24T13:04:32.969Z,85.50
2018-09-24T13:07:05.837Z,86.30
2018-09-24T13:09:38.808Z,89.80
2018-09-24T13:12:11.589Z,91.30
2018-09-24T13:14:44.569Z,91.70
2018-09-24T13:17:17.573Z,91.00
2018-09-24T13:19:50.515Z,91.30
2018-09-24T13:22:23.453Z,90.20
2018-09-24T13:24:56.337Z,90.70
2018-09-24T13:27:29.210Z,87.70
2018-09-24T13:30:02.061Z,87.10
2018-09-24T13:32:35.087Z,89.90
2018-09-24T13:35:07.954Z,86.00
2018-09-24T13:37:41.010Z,85.30
2018-09-24T13:40:13.977Z,88.70
2018-09-24T13:42:46.965Z,88.00
2018-09-24T13:45:20.046Z,85.40
2018-09-24T13:47:52.757Z,84.70
2018-09-24T13:50:25.665Z,80.30
2018-09-24T13:52:58.536Z,80.60
2018-09-24T13:55:31.598Z,77.40
2018-09-24T13:58:04.565Z,77.60
2018-09-24T14:00:37.462Z,78.10
2018-09-24T14:03:10.361Z,77.50
2018-09-24T14:05:43.281Z,78.90
2018-09-24T14:08:16.250Z,78.00
2018-09-24T14:10:49.224Z,78.80
2018-09-24T14:13:22.089Z,79.00
2018-09-24T14:15:54.881Z,77.70
2018-09-24T14:18:27.947Z,76.30
2018-09-24T14:21:00.881Z,76.30
2018-09-24T14:23:33.889Z,76.20
2018-09-24T14:26:06.805Z,78.50
2018-09-24T14:28:39.632Z,78.70
2018-09-24T14:31:12.546Z,80.20
2018-09-24T14:33:45.516Z,78.50
2018-09-24T14:36:18.382Z,78.60
2018-09-24T14:38:51.406Z,78.10
2018-09-24T14:41:24.368Z,78.20
2018-09-24T14:43:57.311Z,76.90
2018-09-24T14:46:30.291Z,75.20
2018-09-24T14:49:03.306Z,80.20
2018-09-24T14:51:36.317Z,77.80
2018-09-24T14:54:09.213Z,78.40
2018-09-24T14:56:42.074Z,80.60
2018-09-24T14:59:14.914Z,79.20
2018-09-24T15:01:48.073Z,81.00
2018-09-24T15:04:20.900Z,76.00
2018-09-24T15:06:53.769Z,75.90
2018-09-24T15:09:26.682Z,75.30
2018-09-24T15:11:59.432Z,74.20
2018-09-24T15:14:32.289Z,75.80
2018-09-24T15:17:05.351Z,75.00
2018-09-24T15:19:38.314Z,75.60
2018-09-24T15:22:11.281Z,76.50
2018-09-24T15:24:44.280Z,77.20
2018-09-24T15:27:17.334Z,78.00
2018-09-24T15:29:50.355Z,77.30
2018-09-24T15:32:23.257Z,78.20
2018-09-24T15:34:56.227Z,76.40
2018-09-24T15:37:29.089Z,76.70
2018-09-24T15:40:02.015Z,75.90
2018-09-24T15:42:34.894Z,74.40
2018-09-24T15:45:07.767Z,75.60
2018-09-24T15:47:40.702Z,75.40
2018-09-24T15:50:13.743Z,75.30
2018-09-24T15:52:46.538Z,75.20
2018-09-24T15:55:19.462Z,74.60
2018-09-24T15:57:52.433Z,74.70
2018-09-24T16:00:25.373Z,74.80
2018-09-24T16:02:58.281Z,77.20
2018-09-24T16:05:31.276Z,75.70
2018-09-24T16:08:04.077Z,74.70
2018-09-24T16:10:36.989Z,74.70
2018-09-24T16:13:09.869Z,76.40
2018-09-24T16:15:43.133Z,76.50
2018-09-24T16:18:15.888Z,77.30
2018-09-24T16:20:48.949Z,76.60
2018-09-24T16:23:21.898Z,79.10
2018-09-24T16:25:54.845Z,79.70
2018-09-24T16:28:27.881Z,79.10
2018-09-24T16:31:00.886Z,80.90
2018-09-24T16:33:33.738Z,81.40
2018-09-24T16:36:06.681Z,80.60
2018-09-24T16:38:39.761Z,81.80
2018-09-24T16:41:12.737Z,82.80
2018-09-24T16:43:45.820Z,84.30
2018-09-24T16:46:18.785Z,84.50
2018-09-24T16:48:51.705Z,85.00
2018-09-24T16:51:24.722Z,86.80
2018-09-24T16:53:57.689Z,85.90
2018-09-24T16:56:30.626Z,84.20
2018-09-24T16:59:03.590Z,85.10
2018-09-24T17:01:36.528Z,84.60
2018-09-24T17:04:09.473Z,85.00
2018-09-24T17:06:42.413Z,86.20
2018-09-24T17:09:15.309Z,87.60
2018-09-24T17:11:48.219Z,87.90
2018-09-24T17:14:21.230Z,87.50
2018-09-24T17:16:54.093Z,88.40
2018-09-24T17:19:27.105Z,88.90
2018-09-24T17:22:00.080Z,89.10
2018-09-24T17:24:32.965Z,89.90
2018-09-24T17:27:05.777Z,90.50
2018-09-24T17:29:38.689Z,90.50
2018-09-24T17:32:11.666Z,90.70
2018-09-24T17:34:44.566Z,90.90
2018-09-24T17:37:17.623Z,91.40
2018-09-24T17:39:50.649Z,91.70
2018-09-24T17:42:23.549Z,91.60
2018-09-24T17:44:56.354Z,91.70
2018-09-24T17:47:29.191Z,92.60
2018-09-24T17:50:02.162Z,91.80
2018-09-24T17:52:35.097Z,92.40
2018-09-24T17:55:08.065Z,92.30
2018-09-24T17:57:41.097Z,92.10
2018-09-24T18:00:14.006Z,92.20
2018-09-24T18:02:47.096Z,92.10
2018-09-24T18:05:19.996Z,92.30
2018-09-24T18:07:52.919Z,92.20
2018-09-24T18:10:26.030Z,92.50
2018-09-24T18:12:58.824Z,92.60
2018-09-24T18:15:31.729Z,92.90
2018-09-24T18:18:04.609Z,93.10
2018-09-24T18:20:37.590Z,93.40
2018-09-24T18:23:10.596Z,93.40
2018-09-24T18:25:43.723Z,93.70
2018-09-24T18:28:16.700Z,94.10
2018-09-24T18:30:49.607Z,93.70
2018-09-24T18:33:22.555Z,93.90
2018-09-24T18:35:55.416Z,94.30
2018-09-24T18:38:28.381Z,94.40
2018-09-24T18:41:01.286Z,94.70
2018-09-24T18:43:34.197Z,94.80
2018-09-24T18:46:07.048Z,94.80
2018-09-24T18:48:39.974Z,95.40
2018-09-24T18:51:12.813Z,95.50
2018-09-24T18:53:45.817Z,95.30
2018-09-24T18:56:18.765Z,96.20
2018-09-24T18:58:51.740Z,96.50
2018-09-24T19:01:24.679Z,97.10
2018-09-24T19:03:57.821Z,96.20
2018-09-24T19:06:30.684Z,96.00
2018-09-24T19:09:03.643Z,95.80
2018-09-24T19:11:36.741Z,96.90
2018-09-24T19:14:09.913Z,96.30
2018-09-24T19:16:42.780Z,96.90
2018-09-24T19:19:16.673Z,96.60
2018-09-24T19:21:49.753Z,96.90
2018-09-24T19:24:22.542Z,97.10
2018-09-24T19:26:55.545Z,97.10
2018-09-24T19:29:28.522Z,97.80
2018-09-24T19:32:01.582Z,97.30
2018-09-24T19:34:34.561Z,97.30
2018-09-24T19:37:07.712Z,97.40
2018-09-24T19:39:40.473Z,97.40
2018-09-24T19:42:13.255Z,98.30
2018-09-24T19:44:46.182Z,97.70
2018-09-24T19:47:19.177Z,98.50
2018-09-24T19:49:52.081Z,98.50
2018-09-24T19:52:24.923Z,99.50
2018-09-24T19:54:57.804Z,99.90
2018-09-24T19:57:30.782Z,99.90
2018-09-24T20:00:03.696Z,99.90
2018-09-24T20:02:36.605Z,99.90
2018-09-24T20:05:09.549Z,99.90
2018-09-24T20:07:42.437Z,99.90
2018-09-24T20:10:15.459Z,99.90
2018-09-24T20:12:48.445Z,99.90
2018-09-24T20:15:21.477Z,99.90
2018-09-24T20:17:54.446Z,99.90
2018-09-24T20:20:27.368Z,99.90
2018-09-24T20:23:00.410Z,99.90
2018-09-24T20:25:33.375Z,99.90
2018-09-24T20:28:06.329Z,99.90
2018-09-24T20:30:39.281Z,99.90
2018-09-24T20:33:12.153Z,99.90
2018-09-24T20:35:45.145Z,99.90
2018-09-24T20:38:18.198Z,99.90
2018-09-24T20:40:51.300Z,99.90
2018-09-24T20:43:24.137Z,99.90
2018-09-24T20:45:57.034Z,99.90
2018-09-24T20:48:29.876Z,99.90
2018-09-24T20:51:02.842Z,99.90
2018-09-24T20:53:35.708Z,99.90
2018-09-24T20:56:08.698Z,99.90
2018-09-24T20:58:41.629Z,99.90
2018-09-24T21:01:14.646Z,99.90
2018-09-24T21:03:47.619Z,99.90
2018-09-24T21:06:20.432Z,99.90
2018-09-24T21:08:53.266Z,99.90
2018-09-24T21:11:26.212Z,99.90
2018-09-24T21:13:59.012Z,99.90
2018-09-24T21:16:31.924Z,99.90
2018-09-24T21:19:04.873Z,99.90
2018-09-24T21:21:37.582Z,99.90
2018-09-24T21:24:10.405Z,99.90
2018-09-24T21:26:43.199Z,99.90
2018-09-24T21:29:16.121Z,99.90
2018-09-24T21:31:49.171Z,99.90
2018-09-24T21:34:22.140Z,99.90
2018-09-24T21:36:55.042Z,99.90
2018-09-24T21:39:27.941Z,99.90
2018-09-24T21:42:01.066Z,99.90
2018-09-24T21:44:33.932Z,99.90
2018-09-24T21:47:06.820Z,99.90
2018-09-24T21:49:39.701Z,99.90
2018-09-24T21:52:12.761Z,99.90
2018-09-24T21:54:45.720Z,99.90
2018-09-24T21:57:18.670Z,99.90
2018-09-24T21:59:51.702Z,99.90
2018-09-24T22:02:24.815Z,99.90
2018-09-24T22:04:57.737Z,99.90
2018-09-24T22:07:30.638Z,99.90
2018-09-24T22:10:03.421Z,99.90
2018-09-24T22:12:36.336Z,99.90
2018-09-24T22:15:09.245Z,99.90
2018-09-24T22:17:42.133Z,99.90
2018-09-24T22:20:14.993Z,99.90
2018-09-24T22:22:47.992Z,99.90
2018-09-24T22:25:20.890Z,99.90
2018-09-24T22:27:53.793Z,99.90
2018-09-24T22:30:26.858Z,99.90
2018-09-24T22:32:59.733Z,99.90
2018-09-24T22:35:32.615Z,99.90
2018-09-24T22:38:05.509Z,99.90
2018-09-24T22:40:38.406Z,99.90
2018-09-24T22:43:11.421Z,99.90
2018-09-24T22:45:44.354Z,99.90
2018-09-24T22:48:17.269Z,99.90
2018-09-24T22:50:50.357Z,99.90
2018-09-24T22:53:23.416Z,99.90
2018-09-24T22:55:56.337Z,99.90
2018-09-24T22:58:29.209Z,99.90
2018-09-24T23:01:02.229Z,99.90
2018-09-24T23:03:35.298Z,99.90
2018-09-24T23:06:08.279Z,99.90
2018-09-24T23:08:47.853Z,99.90
2018-09-24T23:11:20.765Z,99.90
2018-09-24T23:13:53.638Z,99.90
2018-09-24T23:16:26.568Z,99.90
2018-09-24T23:18:59.537Z,99.90
2018-09-24T23:21:32.503Z,99.90
2018-09-24T23:24:05.505Z,99.90
2018-09-24T23:26:38.381Z,99.90
2018-09-24T23:29:11.293Z,99.90
2018-09-24T23:31:44.082Z,99.90
2018-09-24T23:34:17.012Z,99.90
2018-09-24T23:36:49.933Z,99.90
2018-09-24T23:39:23.061Z,99.90
2018-09-24T23:41:56.129Z,99.90
2018-09-24T23:44:29.164Z,99.90
2018-09-24T23:47:02.129Z,99.90
2018-09-24T23:49:34.970Z,99.90
2018-09-24T23:52:07.833Z,99.90
2018-09-24T23:54:40.717Z,99.90
2018-09-24T23:57:13.801Z,99.90
2018-09-24T23:59:46.806Z,99.90
